Time;durP1;ratioP1;P1;durP2;ratioP2;P2;SDS_P1;SDS_P2;PMS_P1;PMS_P2;Temp;Humidity;BMP_temperature;BMP_pressure;BME280_temperature;BME280_humidity;BME280_pressure;Samples;Min_cycle;Max_cycle;Signal;HPM_P1;HPM_P2
2022/08/19 00:01:46;;;;;;;10.00;8.63;;;;;;;17.46;78.99;95372.79;1831764;78;21436;-68
2022/08/19 00:04:17;;;;;;;11.22;8.65;;;;;;;17.47;79.00;95370.53;1831952;78;21448;-68
2022/08/19 00:06:45;;;;;;;9.83;8.38;;;;;;;17.49;78.81;95370.85;1832075;78;21476;-68
2022/08/19 00:09:16;;;;;;;11.97;8.70;;;;;;;17.50;78.49;95371.70;1831899;78;21025;-68
2022/08/19 00:11:44;;;;;;;11.35;8.10;;;;;;;17.51;78.38;95365.42;1831793;78;21009;-68
2022/08/19 00:14:15;;;;;;;11.75;8.58;;;;;;;17.42;78.35;95358.75;1831824;78;21089;-68
2022/08/19 00:16:45;;;;;;;15.32;8.65;;;;;;;17.38;78.56;95361.64;1832037;78;21421;-68
2022/08/19 00:19:12;;;;;;;11.33;8.50;;;;;;;17.28;78.75;95362.08;1831932;78;21057;-68
2022/08/19 00:21:39;;;;;;;9.50;8.50;;;;;;;17.22;78.44;95351.72;1831876;78;20994;-68
2022/08/19 00:24:08;;;;;;;9.55;8.55;;;;;;;17.21;78.56;95354.45;1831832;78;21029;-68
2022/08/19 00:26:37;;;;;;;12.70;8.15;;;;;;;17.22;78.72;95347.72;1831939;78;21029;-68
2022/08/19 00:29:06;;;;;;;12.95;9.10;;;;;;;17.23;78.59;95351.25;1831780;78;21125;-68
2022/08/19 00:31:33;;;;;;;9.35;7.90;;;;;;;17.24;79.15;95354.33;1832084;78;20993;-68
2022/08/19 00:34:00;;;;;;;10.00;8.15;;;;;;;17.13;79.36;95348.16;1831668;78;21014;-68
2022/08/19 00:36:28;;;;;;;9.68;8.48;;;;;;;17.12;79.88;95349.11;1832167;78;20990;-68
2022/08/19 00:38:56;;;;;;;11.00;8.58;;;;;;;17.14;79.81;95344.58;1831777;78;21101;-68
2022/08/19 00:41:24;;;;;;;8.98;7.80;;;;;;;17.21;79.45;95344.67;1832028;78;21037;-68
2022/08/19 00:44:05;;;;;;;9.45;8.00;;;;;;;17.17;79.62;95350.23;1831642;78;21053;-68
2022/08/19 00:46:36;;;;;;;11.93;8.18;;;;;;;17.11;79.30;95345.17;1832064;78;21005;-68
2022/08/19 00:49:08;;;;;;;11.30;8.45;;;;;;;17.08;79.21;95347.52;1832041;78;21089;-68
2022/08/19 00:51:35;;;;;;;8.90;8.00;;;;;;;17.06;79.11;95348.95;1831621;78;21476;-68
2022/08/19 00:54:03;;;;;;;10.20;8.25;;;;;;;17.05;79.35;95351.20;1828275;78;21006;-68
2022/08/19 00:56:31;;;;;;;9.85;8.65;;;;;;;17.02;79.07;95354.02;1825984;78;21018;-68
2022/08/19 00:58:59;;;;;;;12.10;8.43;;;;;;;17.01;79.56;95358.08;1826140;78;21433;-68
2022/08/19 01:01:26;;;;;;;10.18;8.30;;;;;;;16.98;79.30;95351.56;1826890;78;21030;-68
2022/08/19 01:03:53;;;;;;;11.18;8.00;;;;;;;16.93;79.71;95358.44;1826145;78;21043;-68
2022/08/19 01:06:21;;;;;;;10.75;8.30;;;;;;;16.90;79.55;95364.39;1826089;78;21018;-68
2022/08/19 01:08:47;;;;;;;13.05;8.88;;;;;;;16.92;80.04;95365.19;1826126;78;21021;-68
2022/08/19 01:11:14;;;;;;;13.83;9.65;;;;;;;16.96;79.46;95367.64;1825820;78;20998;-68
2022/08/19 01:13:41;;;;;;;12.50;8.88;;;;;;;16.97;79.46;95361.36;1826002;78;21057;-68
2022/08/19 01:16:11;;;;;;;11.48;9.10;;;;;;;16.92;79.76;95369.19;1826168;78;21468;-68
2022/08/19 01:18:42;;;;;;;11.05;9.95;;;;;;;16.80;80.25;95372.80;1826157;78;21520;-68
2022/08/19 01:21:32;;;;;;;12.05;9.23;;;;;;;16.77;80.82;95380.91;1826296;78;21014;-68
2022/08/19 01:24:00;;;;;;;11.95;9.18;;;;;;;16.68;80.03;95380.00;1826468;78;20959;-68
2022/08/19 01:26:28;;;;;;;12.45;9.48;;;;;;;16.60;80.06;95380.34;1825985;78;20995;-68
2022/08/19 01:28:59;;;;;;;10.65;9.28;;;;;;;16.63;80.07;95378.91;1826790;78;20939;-68
2022/08/19 01:31:31;;;;;;;14.25;8.95;;;;;;;16.63;79.92;95375.34;1826189;78;21001;-68
2022/08/19 01:33:59;;;;;;;10.43;9.33;;;;;;;16.58;79.60;95378.25;1826214;78;21424;-68
2022/08/19 01:36:41;;;;;;;13.25;9.80;;;;;;;16.55;79.61;95379.70;1825808;78;21002;-68
2022/08/19 01:39:12;;;;;;;11.88;8.25;;;;;;;16.52;79.53;95381.64;1826418;78;20967;-68
2022/08/19 01:41:39;;;;;;;10.68;8.68;;;;;;;16.47;79.33;95387.17;1825946;78;20974;-68
2022/08/19 01:44:08;;;;;;;10.32;8.75;;;;;;;16.44;79.54;95392.17;1826124;78;20959;-68
2022/08/19 01:46:36;;;;;;;16.27;8.75;;;;;;;16.45;79.57;95387.70;1825863;78;20974;-68
2022/08/19 01:49:06;;;;;;;11.28;8.75;;;;;;;16.45;80.08;95393.03;1826180;78;21479;-68
2022/08/19 01:51:33;;;;;;;10.85;8.93;;;;;;;16.43;80.57;95390.93;1826065;78;21060;-68
2022/08/19 01:53:59;;;;;;;10.88;8.48;;;;;;;16.44;80.46;95391.31;1825985;78;20998;-68
2022/08/19 01:56:27;;;;;;;14.40;9.93;;;;;;;16.46;80.18;95393.45;1826017;78;21014;-68
2022/08/19 01:58:58;;;;;;;9.73;8.20;;;;;;;16.40;80.05;95389.27;1826204;78;21009;-68
2022/08/19 02:01:25;;;;;;;10.08;7.92;;;;;;;16.37;80.20;95383.20;1825271;78;21117;-68
2022/08/19 02:03:53;;;;;;;10.40;8.20;;;;;;;16.31;80.20;95379.48;1826190;78;21046;-68
2022/08/19 02:06:20;;;;;;;10.38;8.48;;;;;;;16.20;79.92;95382.16;1826275;78;21002;-68
2022/08/19 02:08:48;;;;;;;12.23;9.13;;;;;;;16.18;80.03;95380.03;1825651;78;21097;-68
2022/08/19 02:11:26;;;;;;;10.45;8.20;;;;;;;16.14;80.69;95378.89;1826199;78;21571;-68
2022/08/19 02:13:54;;;;;;;9.75;8.10;;;;;;;16.22;81.36;95375.42;1826261;78;21010;-68
2022/08/19 02:16:22;;;;;;;12.95;9.20;;;;;;;16.25;81.42;95381.94;1826202;78;21531;-68
2022/08/19 02:18:48;;;;;;;10.38;8.30;;;;;;;16.25;81.42;95381.94;1826341;78;21030;-68
2022/08/19 02:21:18;;;;;;;13.70;9.20;;;;;;;16.21;81.43;95372.38;1826448;78;20995;-68
2022/08/19 02:23:46;;;;;;;15.38;10.48;;;;;;;16.25;81.09;95378.41;1825161;78;21082;-68
2022/08/19 02:26:14;;;;;;;18.57;12.10;;;;;;;16.26;80.67;95381.02;1826187;78;21539;-68
2022/08/19 02:28:42;;;;;;;14.73;9.45;;;;;;;16.26;80.67;95381.02;1826233;78;21010;-68
2022/08/19 02:31:14;;;;;;;13.53;9.13;;;;;;;16.21;80.83;95379.89;1826231;78;21078;-68
2022/08/19 02:33:41;;;;;;;13.43;8.93;;;;;;;16.21;80.83;95379.89;1826628;78;20982;-68
2022/08/19 02:36:12;;;;;;;12.88;9.25;;;;;;;16.33;80.85;95393.13;1825662;78;21023;-68
2022/08/19 02:38:39;;;;;;;19.57;10.75;;;;;;;16.31;80.40;95390.14;1826226;78;21014;-68
2022/08/19 02:41:21;;;;;;;17.12;10.95;;;;;;;16.26;80.89;95387.67;1826201;78;20994;-68
2022/08/19 02:43:48;;;;;;;13.50;9.50;;;;;;;16.29;81.13;95390.67;1826416;78;21029;-68
2022/08/19 02:46:26;;;;;;;12.85;8.98;;;;;;;16.31;80.77;95386.14;1826247;78;20967;-68
2022/08/19 02:49:01;;;;;;;10.98;8.53;;;;;;;16.38;80.59;95382.28;1826266;78;21009;-68
2022/08/19 02:51:33;;;;;;;11.88;8.48;;;;;;;16.39;80.45;95384.00;1826123;78;21532;-68
2022/08/19 02:54:01;;;;;;;12.63;7.90;;;;;;;16.34;80.08;95389.52;1823761;78;21023;-68
2022/08/19 02:56:28;;;;;;;11.12;9.55;;;;;;;16.24;79.73;95392.20;1821006;79;21038;-68
2022/08/19 02:58:56;;;;;;;11.28;8.53;;;;;;;16.14;79.59;95389.54;1821379;79;20990;-68
2022/08/19 03:01:29;;;;;;;10.03;8.38;;;;;;;16.07;80.45;95395.58;1821274;79;21042;-68
2022/08/19 03:03:59;;;;;;;10.75;9.28;;;;;;;16.00;80.78;95396.34;1794217;79;21458;-68
2022/08/19 03:06:27;;;;;;;13.72;10.53;;;;;;;15.96;80.69;95397.86;1821415;79;21034;-68
2022/08/19 03:08:55;;;;;;;11.70;8.48;;;;;;;15.92;80.59;95397.58;1821391;79;21014;-68
2022/08/19 03:11:29;;;;;;;8.53;7.40;;;;;;;15.94;80.78;95395.25;1820920;79;21002;-68
2022/08/19 03:13:58;;;;;;;10.28;7.58;;;;;;;15.97;80.86;95403.09;1821321;79;20959;-68
2022/08/19 03:16:27;;;;;;;9.58;7.22;;;;;;;15.94;80.49;95405.03;1821356;79;21572;-68
2022/08/19 03:18:56;;;;;;;9.45;7.75;;;;;;;15.89;80.66;95404.37;1821268;79;20994;-68
2022/08/19 03:21:26;;;;;;;8.23;7.17;;;;;;;15.80;81.38;95404.30;1821229;79;21065;-68
2022/08/19 03:23:59;;;;;;;8.43;7.50;;;;;;;15.76;81.47;95404.02;1821484;79;20967;-68
2022/08/19 03:26:26;;;;;;;10.73;8.33;;;;;;;15.75;81.85;95403.16;1821021;79;21048;-68
2022/08/19 03:28:52;;;;;;;18.55;8.95;;;;;;;15.87;82.08;95403.09;1821341;79;21034;-68
2022/08/19 03:31:22;;;;;;;12.55;8.25;;;;;;;15.87;81.62;95396.44;1821375;79;21029;-68
2022/08/19 03:33:51;;;;;;;13.28;7.37;;;;;;;15.90;81.65;95401.66;1821159;79;21464;-68
2022/08/19 03:36:24;;;;;;;10.82;7.70;;;;;;;15.90;80.93;95400.33;1821208;79;21006;-68
2022/08/19 03:38:56;;;;;;;10.95;8.03;;;;;;;15.85;81.32;95403.64;1821087;79;21044;-68
2022/08/19 03:41:30;;;;;;;9.68;8.15;;;;;;;15.84;81.42;95404.55;1821315;79;21005;-68
2022/08/19 03:43:58;;;;;;;9.90;8.90;;;;;;;15.84;81.17;95395.72;1821308;79;20939;-68
2022/08/19 03:46:29;;;;;;;8.98;8.00;;;;;;;15.83;81.67;95401.51;1820921;79;21074;-68
2022/08/19 03:48:59;;;;;;;13.62;8.68;;;;;;;15.76;81.56;95389.39;1792559;79;21006;-68
2022/08/19 03:51:30;;;;;;;13.93;8.48;;;;;;;15.86;82.43;95404.03;1792791;79;21496;-68
2022/08/19 03:53:59;;;;;;;12.00;7.95;;;;;;;15.78;82.28;95391.53;1822944;78;21570;-68
2022/08/19 03:56:28;;;;;;;8.00;7.20;;;;;;;15.78;82.28;95391.53;1831809;78;21057;-68
2022/08/19 03:58:56;;;;;;;9.53;7.65;;;;;;;15.82;82.23;95401.09;1832057;78;21001;-68
2022/08/19 04:01:27;;;;;;;11.50;8.03;;;;;;;15.87;82.00;95394.25;1831770;78;21448;-68
2022/08/19 04:03:55;;;;;;;14.13;7.62;;;;;;;15.88;81.86;95398.66;1831966;78;21026;-68
2022/08/19 04:06:27;;;;;;;8.35;7.25;;;;;;;16.01;81.78;95398.05;1831900;78;21006;-68
2022/08/19 04:08:57;;;;;;;10.70;7.33;;;;;;;16.06;81.57;95402.33;1831999;78;21061;-68
2022/08/19 04:11:29;;;;;;;12.98;7.58;;;;;;;16.13;81.74;95400.66;1831858;78;21468;-68
2022/08/19 04:13:56;;;;;;;12.03;8.00;;;;;;;16.12;81.42;95405.56;1831793;78;21070;-68
2022/08/19 04:16:31;;;;;;;10.63;8.83;;;;;;;16.15;82.14;95396.14;1832229;78;21546;-68
2022/08/19 04:18:56;;;;;;;11.45;9.00;;;;;;;16.27;82.35;95404.51;1830486;78;21032;-68
2022/08/19 04:21:26;;;;;;;14.20;8.90;;;;;;;16.34;82.07;95390.00;1831673;78;21093;-68
2022/08/19 04:23:55;;;;;;;11.48;8.83;;;;;;;16.44;81.71;95386.84;1832086;78;21033;-68
2022/08/19 04:26:32;;;;;;;10.28;8.35;;;;;;;16.54;81.39;95385.11;1831820;78;21006;-68
2022/08/19 04:29:04;;;;;;;11.03;9.45;;;;;;;16.59;80.79;95385.77;1832023;78;21017;-68
2022/08/19 04:31:37;;;;;;;16.42;8.80;;;;;;;16.66;80.69;95384.08;1831777;78;21543;-68
2022/08/19 04:34:05;;;;;;;9.80;8.45;;;;;;;16.74;80.49;95387.73;1830714;78;21005;-68
2022/08/19 04:36:36;;;;;;;12.20;8.80;;;;;;;16.79;80.47;95393.73;1831850;78;21064;-68
2022/08/19 04:39:08;;;;;;;11.35;9.93;;;;;;;16.86;80.60;95393.00;1832190;78;21021;-68
2022/08/19 04:44:20;;;;;;;9.45;8.38;;;;;;;17.23;80.56;95395.24;1831938;78;21028;-68
2022/08/19 04:46:51;;;;;;;9.48;8.50;;;;;;;17.32;79.65;95397.48;1831968;78;21010;-68
2022/08/19 04:49:22;;;;;;;11.75;9.60;;;;;;;17.38;79.21;95401.17;1831984;78;20974;-68
2022/08/19 04:51:54;;;;;;;9.83;8.30;;;;;;;17.40;78.73;95410.44;1832047;78;21009;-68
2022/08/19 04:54:23;;;;;;;8.83;7.87;;;;;;;17.44;78.25;95411.56;1830648;78;21034;-68
2022/08/19 04:56:51;;;;;;;8.88;7.97;;;;;;;17.54;78.09;95411.98;1825883;78;20994;-68
2022/08/19 04:59:20;;;;;;;9.18;7.85;;;;;;;17.67;78.19;95413.58;1826168;78;20963;-68
2022/08/19 05:01:49;;;;;;;9.50;7.80;;;;;;;17.79;77.88;95409.41;1826087;78;20994;-68
2022/08/19 05:04:19;;;;;;;9.58;7.97;;;;;;;17.90;77.68;95409.78;1825831;78;21003;-68
2022/08/19 05:06:48;;;;;;;10.63;8.53;;;;;;;17.97;77.44;95407.20;1826173;78;21499;-68
2022/08/19 05:09:16;;;;;;;9.50;8.50;;;;;;;18.02;77.23;95401.64;1826147;78;20978;-68
2022/08/19 05:11:44;;;;;;;16.85;7.95;;;;;;;18.00;76.39;95411.05;1826011;78;21604;-68
2022/08/19 05:14:12;;;;;;;9.43;7.58;;;;;;;17.98;76.49;95410.73;1826083;78;21109;-68
2022/08/19 05:16:40;;;;;;;14.30;7.80;;;;;;;18.00;76.80;95412.86;1826296;78;21014;-68
2022/08/19 05:24:39;;;;;;;9.03;7.47;;;;;;;18.26;75.99;95407.51;1825831;78;20979;-68
2022/08/19 05:27:05;;;;;;;8.48;7.40;;;;;;;18.34;75.85;95402.18;1826261;78;20987;-68
2022/08/19 05:29:34;;;;;;;14.68;7.62;;;;;;;18.48;75.68;95401.92;1826034;78;21001;-68
2022/08/19 05:32:04;;;;;;;11.12;7.60;;;;;;;18.55;75.27;95397.50;1794688;78;20990;-68
2022/08/19 05:34:32;;;;;;;13.10;9.28;;;;;;;18.63;74.87;95398.91;1826150;78;20990;-68
2022/08/19 05:37:01;;;;;;;13.60;10.60;;;;;;;18.69;74.57;95395.41;1825821;78;21025;-69
2022/08/19 05:39:32;;;;;;;12.63;11.20;;;;;;;18.75;73.99;95391.13;1826005;78;20970;-68
2022/08/19 05:42:05;;;;;;;9.45;7.67;;;;;;;18.82;73.67;95394.31;1826069;78;21507;-68
2022/08/19 05:44:35;;;;;;;8.43;7.62;;;;;;;18.89;73.39;95381.48;1826247;78;20970;-68
2022/08/19 05:47:05;;;;;;;9.53;7.45;;;;;;;18.99;73.74;95388.05;1825897;78;20966;-68
2022/08/19 05:49:33;;;;;;;33.75;7.92;;;;;;;19.13;73.36;95388.64;1826129;78;21439;-68
2022/08/19 05:52:05;;;;;;;7.72;6.85;;;;;;;19.24;73.22;95388.89;1826172;78;20990;-68
2022/08/19 05:54:32;;;;;;;8.30;6.28;;;;;;;19.35;72.76;95393.19;1825274;78;21026;-68
2022/08/19 05:57:01;;;;;;;9.73;6.83;;;;;;;19.46;72.38;95391.23;1826238;78;21073;-68
2022/08/19 05:59:28;;;;;;;8.75;6.70;;;;;;;19.59;72.14;95398.08;1825941;78;20986;-68
2022/08/19 06:01:56;;;;;;;9.75;6.42;;;;;;;19.71;71.64;95395.22;1825792;78;21105;-68
2022/08/19 06:04:23;;;;;;;8.28;6.55;;;;;;;19.84;70.91;95396.22;1826127;78;20997;-68
2022/08/19 06:06:53;;;;;;;9.68;6.83;;;;;;;19.97;70.71;95401.23;1825604;78;21058;-68
2022/08/19 06:09:22;;;;;;;8.08;7.33;;;;;;;20.14;70.06;95410.11;1826029;78;20955;-68
2022/08/19 06:11:57;;;;;;;8.93;7.25;;;;;;;20.25;69.93;95397.78;1826070;78;21030;-67
2022/08/19 06:14:28;;;;;;;9.40;7.53;;;;;;;20.41;68.66;95400.88;1826073;78;21082;-68
2022/08/19 06:16:55;;;;;;;10.03;7.37;;;;;;;20.57;69.25;95400.86;1826248;78;21539;-68
2022/08/19 06:19:24;;;;;;;25.60;8.83;;;;;;;20.74;69.04;95395.33;1826208;78;20978;-68
2022/08/19 06:21:52;;;;;;;8.75;7.83;;;;;;;20.92;68.97;95402.70;1826071;78;21476;-68
2022/08/19 06:24:25;;;;;;;8.18;7.37;;;;;;;21.08;69.01;95402.11;1826100;78;21046;-69
2022/08/19 06:26:55;;;;;;;11.05;7.72;;;;;;;21.23;68.35;95404.79;1826053;78;21006;-67
2022/08/19 06:29:24;;;;;;;9.10;8.30;;;;;;;21.36;68.22;95401.70;1825881;78;21090;-68
2022/08/19 06:31:55;;;;;;;9.63;8.63;;;;;;;21.49;67.35;95407.16;1826042;78;20998;-68
2022/08/19 06:34:23;;;;;;;9.98;8.08;;;;;;;21.59;66.83;95410.97;1825713;78;21010;-69
2022/08/19 06:36:52;;;;;;;9.33;8.15;;;;;;;21.67;67.00;95410.02;1826139;78;21037;-69
2022/08/19 06:39:23;;;;;;;15.43;8.83;;;;;;;21.78;66.14;95410.16;1826252;78;21472;-68
2022/08/19 06:41:55;;;;;;;12.33;8.50;;;;;;;21.86;66.40;95406.97;1825947;78;21069;-68
2022/08/19 06:44:35;;;;;;;14.85;9.40;;;;;;;21.97;66.45;95401.77;1825992;78;20951;-68
2022/08/19 06:46:55;;;;;;;15.10;9.35;;;;;;;22.11;66.14;95396.79;1823822;78;21013;-68
2022/08/19 06:49:24;;;;;;;17.87;9.93;;;;;;;22.24;65.89;95400.88;1826129;78;20970;-68
2022/08/19 06:51:51;;;;;;;18.05;9.80;;;;;;;22.33;65.29;95384.63;1826189;78;20978;-68
2022/08/19 06:54:19;;;;;;;14.90;10.30;;;;;;;22.41;65.21;95384.95;1825994;78;21007;-68
2022/08/19 06:56:47;;;;;;;16.40;10.50;;;;;;;22.53;65.06;95385.92;1831336;78;21457;-68
2022/08/19 06:59:18;;;;;;;12.82;9.58;;;;;;;22.63;64.65;95385.69;1831843;78;21029;-68
2022/08/19 07:01:49;;;;;;;22.32;11.93;;;;;;;22.75;64.10;95392.02;1832001;78;21002;-68
2022/08/19 07:04:21;;;;;;;15.70;9.35;;;;;;;22.86;64.19;95393.48;1831893;78;21444;-68
2022/08/19 07:06:49;;;;;;;11.35;9.10;;;;;;;22.99;63.68;95397.05;1800997;78;21044;-68
2022/08/19 07:09:18;;;;;;;13.53;9.30;;;;;;;23.11;62.47;95395.33;1831843;78;21025;-68
2022/08/19 07:11:50;;;;;;;17.85;9.98;;;;;;;23.23;61.75;95390.88;1832179;78;20978;-69
2022/08/19 07:14:19;;;;;;;;;;;;;;;23.39;60.97;95384.78;1834729;78;21068;-68
2022/08/19 07:16:49;;;;;;;13.62;9.00;;;;;;;23.52;61.24;95384.73;1831979;78;20362;-68
2022/08/19 07:19:18;;;;;;;15.58;9.35;;;;;;;23.66;61.54;95384.59;1832262;78;21017;-69
2022/08/19 07:21:52;;;;;;;9.85;8.85;;;;;;;23.82;61.95;95384.34;1832209;78;21002;-68
2022/08/19 07:24:23;;;;;;;11.05;8.63;;;;;;;23.93;59.63;95384.39;1832016;78;21021;-69
2022/08/19 07:26:53;;;;;;;13.85;9.05;;;;;;;24.03;59.06;95384.56;1831967;78;21139;-68
2022/08/19 07:29:24;;;;;;;9.33;8.30;;;;;;;24.12;58.86;95393.80;1831877;78;21532;-67
2022/08/19 07:31:55;;;;;;;15.13;8.73;;;;;;;24.18;56.67;95388.79;1831825;78;21082;-68
2022/08/19 07:34:21;;;;;;;12.58;8.48;;;;;;;24.33;58.74;95393.51;1832086;78;21021;-68
2022/08/19 07:36:49;;;;;;;23.05;14.38;;;;;;;24.46;57.54;95400.20;1832249;78;21018;-68
2022/08/19 07:39:23;;;;;;;21.35;9.13;;;;;;;24.58;56.47;95397.05;1832131;78;21017;-68
2022/08/19 07:41:50;;;;;;;9.45;8.50;;;;;;;24.71;57.52;95392.42;1831962;78;21006;-67
2022/08/19 07:44:20;;;;;;;10.60;8.48;;;;;;;24.89;56.11;95396.86;1831798;78;21008;-68
2022/08/19 07:46:51;;;;;;;11.55;8.55;;;;;;;24.96;55.76;95385.95;1831949;78;20994;-68
2022/08/19 07:49:19;;;;;;;9.53;8.50;;;;;;;25.10;56.17;95388.92;1832083;78;20994;-68
2022/08/19 07:51:53;;;;;;;10.72;8.60;;;;;;;25.20;56.35;95372.86;1831711;78;21106;-68
2022/08/19 07:54:23;;;;;;;14.38;8.85;;;;;;;25.31;56.03;95380.13;1832093;78;21417;-68
